sensor_id;sensor_type;location;lat;lon;timestamp;P1;durP1;ratioP1;P2;durP2;ratioP2
21245;SDS011;10781;50.928;4.440;2023-08-20T00:01:36;10.07;;;3.00;;
21245;SDS011;10781;50.928;4.440;2023-08-20T00:04:01;9.98;;;3.03;;
21245;SDS011;10781;50.928;4.440;2023-08-20T00:06:28;12.63;;;3.40;;
21245;SDS011;10781;50.928;4.440;2023-08-20T00:08:54;10.05;;;2.97;;
21245;SDS011;10781;50.928;4.440;2023-08-20T00:11:19;13.07;;;3.08;;
21245;SDS011;10781;50.928;4.440;2023-08-20T00:13:45;9.05;;;2.90;;
21245;SDS011;10781;50.928;4.440;2023-08-20T00:16:11;10.35;;;3.13;;
21245;SDS011;10781;50.928;4.440;2023-08-20T00:18:37;9.32;;;3.13;;
21245;SDS011;10781;50.928;4.440;2023-08-20T00:21:03;8.43;;;3.28;;
21245;SDS011;10781;50.928;4.440;2023-08-20T00:23:30;10.75;;;2.88;;
21245;SDS011;10781;50.928;4.440;2023-08-20T00:25:56;9.73;;;3.22;;
21245;SDS011;10781;50.928;4.440;2023-08-20T00:28:22;11.35;;;3.25;;
21245;SDS011;10781;50.928;4.440;2023-08-20T00:30:47;11.10;;;3.13;;
21245;SDS011;10781;50.928;4.440;2023-08-20T00:33:14;12.68;;;3.13;;
21245;SDS011;10781;50.928;4.440;2023-08-20T00:35:39;11.23;;;3.17;;
21245;SDS011;10781;50.928;4.440;2023-08-20T00:38:05;7.40;;;3.00;;
21245;SDS011;10781;50.928;4.440;2023-08-20T00:40:31;9.20;;;2.95;;
21245;SDS011;10781;50.928;4.440;2023-08-20T00:42:57;12.40;;;3.60;;
21245;SDS011;10781;50.928;4.440;2023-08-20T00:45:23;7.78;;;2.83;;
21245;SDS011;10781;50.928;4.440;2023-08-20T00:47:49;8.18;;;3.10;;
21245;SDS011;10781;50.928;4.440;2023-08-20T00:50:16;7.07;;;2.90;;
21245;SDS011;10781;50.928;4.440;2023-08-20T00:52:43;8.98;;;3.00;;
21245;SDS011;10781;50.928;4.440;2023-08-20T00:55:10;10.98;;;3.28;;
21245;SDS011;10781;50.928;4.440;2023-08-20T00:57:36;10.18;;;3.33;;
21245;SDS011;10781;50.928;4.440;2023-08-20T01:00:03;12.63;;;3.40;;
21245;SDS011;10781;50.928;4.440;2023-08-20T01:02:34;11.13;;;2.80;;
21245;SDS011;10781;50.928;4.440;2023-08-20T01:05:00;10.70;;;3.15;;
21245;SDS011;10781;50.928;4.440;2023-08-20T01:07:29;11.45;;;2.85;;
21245;SDS011;10781;50.928;4.440;2023-08-20T01:10:05;12.82;;;2.97;;
21245;SDS011;10781;50.928;4.440;2023-08-20T01:12:34;8.85;;;2.90;;
21245;SDS011;10781;50.928;4.440;2023-08-20T01:15:00;12.02;;;2.70;;
21245;SDS011;10781;50.928;4.440;2023-08-20T01:17:26;8.18;;;2.88;;
21245;SDS011;10781;50.928;4.440;2023-08-20T01:19:52;9.70;;;2.67;;
21245;SDS011;10781;50.928;4.440;2023-08-20T01:30:51;9.00;;;2.95;;
21245;SDS011;10781;50.928;4.440;2023-08-20T01:33:18;11.25;;;3.03;;
21245;SDS011;10781;50.928;4.440;2023-08-20T01:35:44;9.68;;;2.80;;
21245;SDS011;10781;50.928;4.440;2023-08-20T01:38:10;10.30;;;2.58;;
21245;SDS011;10781;50.928;4.440;2023-08-20T01:40:36;10.88;;;2.85;;
21245;SDS011;10781;50.928;4.440;2023-08-20T01:43:02;10.23;;;2.78;;
21245;SDS011;10781;50.928;4.440;2023-08-20T01:45:27;12.43;;;2.90;;
21245;SDS011;10781;50.928;4.440;2023-08-20T01:47:53;8.30;;;2.65;;
21245;SDS011;10781;50.928;4.440;2023-08-20T01:50:19;13.73;;;2.80;;
21245;SDS011;10781;50.928;4.440;2023-08-20T01:52:44;8.05;;;2.60;;
21245;SDS011;10781;50.928;4.440;2023-08-20T01:55:10;9.90;;;2.70;;
21245;SDS011;10781;50.928;4.440;2023-08-20T01:57:36;7.28;;;2.50;;
21245;SDS011;10781;50.928;4.440;2023-08-20T02:00:02;8.15;;;2.58;;
21245;SDS011;10781;50.928;4.440;2023-08-20T02:02:30;10.90;;;2.50;;
21245;SDS011;10781;50.928;4.440;2023-08-20T02:04:56;8.77;;;2.38;;
21245;SDS011;10781;50.928;4.440;2023-08-20T02:07:21;9.20;;;2.38;;
21245;SDS011;10781;50.928;4.440;2023-08-20T02:09:47;9.35;;;2.90;;
21245;SDS011;10781;50.928;4.440;2023-08-20T02:12:13;5.90;;;2.42;;
21245;SDS011;10781;50.928;4.440;2023-08-20T02:14:39;11.05;;;2.70;;
21245;SDS011;10781;50.928;4.440;2023-08-20T02:17:05;11.95;;;2.83;;
21245;SDS011;10781;50.928;4.440;2023-08-20T02:19:32;9.23;;;2.38;;
21245;SDS011;10781;50.928;4.440;2023-08-20T02:21:57;8.27;;;2.60;;
21245;SDS011;10781;50.928;4.440;2023-08-20T02:24:23;8.13;;;2.60;;
21245;SDS011;10781;50.928;4.440;2023-08-20T02:26:49;7.75;;;2.92;;
21245;SDS011;10781;50.928;4.440;2023-08-20T02:29:14;8.65;;;2.42;;
21245;SDS011;10781;50.928;4.440;2023-08-20T02:31:40;8.38;;;3.03;;
21245;SDS011;10781;50.928;4.440;2023-08-20T02:34:06;10.23;;;2.80;;
21245;SDS011;10781;50.928;4.440;2023-08-20T02:36:31;11.27;;;2.85;;
21245;SDS011;10781;50.928;4.440;2023-08-20T02:38:57;7.97;;;3.10;;
21245;SDS011;10781;50.928;4.440;2023-08-20T02:41:22;11.25;;;2.70;;
21245;SDS011;10781;50.928;4.440;2023-08-20T02:43:48;8.57;;;2.75;;
21245;SDS011;10781;50.928;4.440;2023-08-20T02:46:14;8.88;;;2.53;;
21245;SDS011;10781;50.928;4.440;2023-08-20T02:48:39;8.35;;;2.50;;
21245;SDS011;10781;50.928;4.440;2023-08-20T02:51:05;9.55;;;2.72;;
21245;SDS011;10781;50.928;4.440;2023-08-20T02:53:31;8.32;;;2.72;;
21245;SDS011;10781;50.928;4.440;2023-08-20T02:55:57;9.50;;;2.83;;
21245;SDS011;10781;50.928;4.440;2023-08-20T02:58:23;11.40;;;2.58;;
21245;SDS011;10781;50.928;4.440;2023-08-20T03:00:49;7.03;;;2.63;;
21245;SDS011;10781;50.928;4.440;2023-08-20T03:03:15;10.82;;;3.42;;
21245;SDS011;10781;50.928;4.440;2023-08-20T03:05:41;7.90;;;2.72;;
21245;SDS011;10781;50.928;4.440;2023-08-20T03:08:07;7.25;;;2.60;;
21245;SDS011;10781;50.928;4.440;2023-08-20T03:10:33;10.32;;;2.85;;
21245;SDS011;10781;50.928;4.440;2023-08-20T03:13:00;8.27;;;2.90;;
21245;SDS011;10781;50.928;4.440;2023-08-20T03:15:29;9.65;;;2.83;;
21245;SDS011;10781;50.928;4.440;2023-08-20T03:17:55;11.18;;;3.00;;
21245;SDS011;10781;50.928;4.440;2023-08-20T03:20:20;10.15;;;3.00;;
21245;SDS011;10781;50.928;4.440;2023-08-20T03:22:46;12.48;;;2.90;;
21245;SDS011;10781;50.928;4.440;2023-08-20T03:25:12;8.50;;;3.00;;
21245;SDS011;10781;50.928;4.440;2023-08-20T03:27:37;9.02;;;3.15;;
21245;SDS011;10781;50.928;4.440;2023-08-20T03:30:03;10.35;;;3.47;;
21245;SDS011;10781;50.928;4.440;2023-08-20T03:32:30;8.68;;;3.00;;
21245;SDS011;10781;50.928;4.440;2023-08-20T03:34:56;10.82;;;2.90;;
21245;SDS011;10781;50.928;4.440;2023-08-20T03:37:24;7.50;;;2.53;;
21245;SDS011;10781;50.928;4.440;2023-08-20T03:39:50;10.25;;;2.97;;
21245;SDS011;10781;50.928;4.440;2023-08-20T03:42:15;10.15;;;2.92;;
21245;SDS011;10781;50.928;4.440;2023-08-20T03:44:41;6.50;;;2.95;;
21245;SDS011;10781;50.928;4.440;2023-08-20T03:47:07;11.60;;;3.15;;
21245;SDS011;10781;50.928;4.440;2023-08-20T03:49:32;5.57;;;2.60;;
21245;SDS011;10781;50.928;4.440;2023-08-20T03:51:58;9.00;;;2.92;;
21245;SDS011;10781;50.928;4.440;2023-08-20T03:54:26;9.95;;;2.53;;
21245;SDS011;10781;50.928;4.440;2023-08-20T03:56:53;7.35;;;2.53;;
21245;SDS011;10781;50.928;4.440;2023-08-20T03:59:19;6.55;;;2.53;;
21245;SDS011;10781;50.928;4.440;2023-08-20T04:01:44;8.98;;;2.67;;
21245;SDS011;10781;50.928;4.440;2023-08-20T04:04:10;8.52;;;2.60;;
21245;SDS011;10781;50.928;4.440;2023-08-20T04:06:36;7.53;;;2.65;;
21245;SDS011;10781;50.928;4.440;2023-08-20T04:09:01;8.98;;;2.65;;
21245;SDS011;10781;50.928;4.440;2023-08-20T04:11:27;6.70;;;2.55;;
21245;SDS011;10781;50.928;4.440;2023-08-20T04:13:53;9.80;;;2.80;;
21245;SDS011;10781;50.928;4.440;2023-08-20T04:16:19;7.05;;;2.53;;
21245;SDS011;10781;50.928;4.440;2023-08-20T04:18:44;7.30;;;3.08;;
21245;SDS011;10781;50.928;4.440;2023-08-20T04:21:10;11.00;;;2.70;;
21245;SDS011;10781;50.928;4.440;2023-08-20T04:23:36;8.43;;;3.22;;
21245;SDS011;10781;50.928;4.440;2023-08-20T04:26:01;11.90;;;2.95;;
21245;SDS011;10781;50.928;4.440;2023-08-20T04:28:27;8.40;;;2.72;;
21245;SDS011;10781;50.928;4.440;2023-08-20T04:30:53;7.25;;;2.80;;
21245;SDS011;10781;50.928;4.440;2023-08-20T04:33:19;9.75;;;3.47;;
21245;SDS011;10781;50.928;4.440;2023-08-20T04:35:46;8.93;;;3.00;;
21245;SDS011;10781;50.928;4.440;2023-08-20T04:38:15;8.63;;;2.90;;
21245;SDS011;10781;50.928;4.440;2023-08-20T04:40:40;9.30;;;2.97;;
21245;SDS011;10781;50.928;4.440;2023-08-20T04:43:06;9.65;;;2.95;;
21245;SDS011;10781;50.928;4.440;2023-08-20T04:45:31;8.30;;;3.03;;
21245;SDS011;10781;50.928;4.440;2023-08-20T04:47:57;9.82;;;3.35;;
21245;SDS011;10781;50.928;4.440;2023-08-20T04:50:23;10.35;;;3.58;;
21245;SDS011;10781;50.928;4.440;2023-08-20T04:52:49;9.50;;;3.10;;
21245;SDS011;10781;50.928;4.440;2023-08-20T04:55:15;12.52;;;3.15;;
21245;SDS011;10781;50.928;4.440;2023-08-20T04:57:41;10.25;;;3.15;;
21245;SDS011;10781;50.928;4.440;2023-08-20T05:00:07;10.35;;;3.10;;
21245;SDS011;10781;50.928;4.440;2023-08-20T05:02:34;8.80;;;3.10;;
21245;SDS011;10781;50.928;4.440;2023-08-20T05:05:01;12.18;;;3.45;;
21245;SDS011;10781;50.928;4.440;2023-08-20T05:07:27;11.18;;;3.35;;
21245;SDS011;10781;50.928;4.440;2023-08-20T05:09:52;10.07;;;3.80;;
21245;SDS011;10781;50.928;4.440;2023-08-20T05:12:18;11.13;;;3.60;;
21245;SDS011;10781;50.928;4.440;2023-08-20T05:14:44;10.32;;;3.70;;
21245;SDS011;10781;50.928;4.440;2023-08-20T05:17:09;10.55;;;3.28;;
21245;SDS011;10781;50.928;4.440;2023-08-20T05:19:35;8.27;;;3.03;;
21245;SDS011;10781;50.928;4.440;2023-08-20T05:22:01;7.55;;;3.08;;
21245;SDS011;10781;50.928;4.440;2023-08-20T05:24:26;10.80;;;3.50;;
21245;SDS011;10781;50.928;4.440;2023-08-20T05:27:08;10.20;;;3.70;;
21245;SDS011;10781;50.928;4.440;2023-08-20T05:29:34;11.23;;;3.80;;
21245;SDS011;10781;50.928;4.440;2023-08-20T05:32:00;9.73;;;3.42;;
21245;SDS011;10781;50.928;4.440;2023-08-20T05:34:25;8.07;;;3.67;;
21245;SDS011;10781;50.928;4.440;2023-08-20T05:36:51;9.60;;;3.80;;
21245;SDS011;10781;50.928;4.440;2023-08-20T05:39:17;10.20;;;3.10;;
21245;SDS011;10781;50.928;4.440;2023-08-20T05:41:42;9.55;;;3.50;;
21245;SDS011;10781;50.928;4.440;2023-08-20T05:44:09;10.63;;;3.38;;
21245;SDS011;10781;50.928;4.440;2023-08-20T05:46:35;12.75;;;3.90;;
21245;SDS011;10781;50.928;4.440;2023-08-20T05:49:01;10.70;;;3.25;;
21245;SDS011;10781;50.928;4.440;2023-08-20T05:51:26;8.93;;;2.90;;
21245;SDS011;10781;50.928;4.440;2023-08-20T05:53:52;8.43;;;3.08;;
21245;SDS011;10781;50.928;4.440;2023-08-20T05:56:18;8.73;;;3.20;;
21245;SDS011;10781;50.928;4.440;2023-08-20T05:58:43;11.40;;;3.45;;
21245;SDS011;10781;50.928;4.440;2023-08-20T06:01:09;10.07;;;3.50;;
21245;SDS011;10781;50.928;4.440;2023-08-20T06:03:35;8.27;;;3.33;;
21245;SDS011;10781;50.928;4.440;2023-08-20T06:06:00;10.52;;;3.33;;
21245;SDS011;10781;50.928;4.440;2023-08-20T06:08:27;9.18;;;3.25;;
21245;SDS011;10781;50.928;4.440;2023-08-20T06:10:53;7.63;;;3.80;;
21245;SDS011;10781;50.928;4.440;2023-08-20T06:13:18;11.93;;;3.75;;
21245;SDS011;10781;50.928;4.440;2023-08-20T06:15:44;8.65;;;3.30;;
21245;SDS011;10781;50.928;4.440;2023-08-20T06:18:09;8.93;;;3.67;;
21245;SDS011;10781;50.928;4.440;2023-08-20T06:20:35;10.90;;;3.30;;
21245;SDS011;10781;50.928;4.440;2023-08-20T06:23:01;9.50;;;3.85;;
21245;SDS011;10781;50.928;4.440;2023-08-20T06:25:26;10.35;;;3.65;;
21245;SDS011;10781;50.928;4.440;2023-08-20T06:27:52;11.43;;;3.70;;
21245;SDS011;10781;50.928;4.440;2023-08-20T06:30:17;9.18;;;3.40;;
21245;SDS011;10781;50.928;4.440;2023-08-20T06:32:44;10.93;;;3.60;;
21245;SDS011;10781;50.928;4.440;2023-08-20T06:35:09;8.80;;;3.70;;
21245;SDS011;10781;50.928;4.440;2023-08-20T06:37:36;7.25;;;3.10;;
21245;SDS011;10781;50.928;4.440;2023-08-20T06:40:03;9.38;;;2.88;;
21245;SDS011;10781;50.928;4.440;2023-08-20T06:42:29;8.95;;;2.72;;
21245;SDS011;10781;50.928;4.440;2023-08-20T06:44:55;7.30;;;2.33;;
21245;SDS011;10781;50.928;4.440;2023-08-20T06:47:21;8.30;;;3.00;;
21245;SDS011;10781;50.928;4.440;2023-08-20T06:49:46;6.93;;;2.20;;
21245;SDS011;10781;50.928;4.440;2023-08-20T06:52:12;6.20;;;1.60;;
21245;SDS011;10781;50.928;4.440;2023-08-20T06:54:38;7.03;;;1.60;;
21245;SDS011;10781;50.928;4.440;2023-08-20T06:57:03;10.05;;;1.85;;
21245;SDS011;10781;50.928;4.440;2023-08-20T06:59:29;6.07;;;1.58;;
21245;SDS011;10781;50.928;4.440;2023-08-20T07:01:55;4.90;;;1.63;;
21245;SDS011;10781;50.928;4.440;2023-08-20T07:04:20;6.93;;;1.80;;
21245;SDS011;10781;50.928;4.440;2023-08-20T07:06:46;6.25;;;1.50;;
21245;SDS011;10781;50.928;4.440;2023-08-20T07:09:11;6.88;;;1.80;;
21245;SDS011;10781;50.928;4.440;2023-08-20T07:11:37;4.90;;;1.50;;
21245;SDS011;10781;50.928;4.440;2023-08-20T07:14:03;2.90;;;1.13;;
21245;SDS011;10781;50.928;4.440;2023-08-20T07:16:28;6.15;;;1.35;;
21245;SDS011;10781;50.928;4.440;2023-08-20T07:18:54;4.00;;;1.45;;
21245;SDS011;10781;50.928;4.440;2023-08-20T07:21:20;4.47;;;1.52;;
21245;SDS011;10781;50.928;4.440;2023-08-20T07:23:45;3.80;;;1.25;;
21245;SDS011;10781;50.928;4.440;2023-08-20T07:26:11;6.63;;;1.30;;
21245;SDS011;10781;50.928;4.440;2023-08-20T07:28:37;5.13;;;1.52;;
21245;SDS011;10781;50.928;4.440;2023-08-20T07:31:21;4.63;;;1.30;;
21245;SDS011;10781;50.928;4.440;2023-08-20T07:33:48;3.83;;;1.30;;
21245;SDS011;10781;50.928;4.440;2023-08-20T07:36:15;4.93;;;1.17;;
21245;SDS011;10781;50.928;4.440;2023-08-20T07:38:43;4.45;;;1.80;;
21245;SDS011;10781;50.928;4.440;2023-08-20T07:41:09;4.85;;;1.70;;
21245;SDS011;10781;50.928;4.440;2023-08-20T07:43:38;4.65;;;1.35;;
21245;SDS011;10781;50.928;4.440;2023-08-20T07:46:04;4.15;;;1.45;;
21245;SDS011;10781;50.928;4.440;2023-08-20T07:48:30;4.10;;;1.50;;
21245;SDS011;10781;50.928;4.440;2023-08-20T07:50:56;5.20;;;1.63;;
21245;SDS011;10781;50.928;4.440;2023-08-20T07:53:22;4.72;;;1.42;;
21245;SDS011;10781;50.928;4.440;2023-08-20T07:55:47;3.38;;;1.15;;
21245;SDS011;10781;50.928;4.440;2023-08-20T07:58:13;4.38;;;1.23;;
21245;SDS011;10781;50.928;4.440;2023-08-20T08:00:38;4.35;;;1.40;;
21245;SDS011;10781;50.928;4.440;2023-08-20T08:03:04;4.57;;;1.75;;
21245;SDS011;10781;50.928;4.440;2023-08-20T08:05:30;5.82;;;1.75;;
21245;SDS011;10781;50.928;4.440;2023-08-20T08:07:55;3.13;;;1.15;;
21245;SDS011;10781;50.928;4.440;2023-08-20T08:10:21;3.75;;;1.33;;
21245;SDS011;10781;50.928;4.440;2023-08-20T08:12:47;3.78;;;1.35;;
21245;SDS011;10781;50.928;4.440;2023-08-20T08:15:12;4.10;;;1.30;;
21245;SDS011;10781;50.928;4.440;2023-08-20T08:17:38;3.83;;;1.30;;
21245;SDS011;10781;50.928;4.440;2023-08-20T08:20:04;6.28;;;2.90;;
21245;SDS011;10781;50.928;4.440;2023-08-20T08:22:31;4.05;;;1.48;;
21245;SDS011;10781;50.928;4.440;2023-08-20T08:24:56;4.65;;;1.50;;
21245;SDS011;10781;50.928;4.440;2023-08-20T08:27:22;6.13;;;1.40;;
21245;SDS011;10781;50.928;4.440;2023-08-20T08:29:48;3.97;;;1.10;;
21245;SDS011;10781;50.928;4.440;2023-08-20T08:32:15;4.82;;;1.25;;
21245;SDS011;10781;50.928;4.440;2023-08-20T08:34:41;5.20;;;1.30;;
21245;SDS011;10781;50.928;4.440;2023-08-20T08:37:06;4.88;;;1.52;;
21245;SDS011;10781;50.928;4.440;2023-08-20T08:39:32;2.65;;;1.30;;
21245;SDS011;10781;50.928;4.440;2023-08-20T08:42:01;4.55;;;1.38;;
21245;SDS011;10781;50.928;4.440;2023-08-20T08:44:32;2.92;;;1.10;;
21245;SDS011;10781;50.928;4.440;2023-08-20T08:46:58;3.72;;;1.00;;
21245;SDS011;10781;50.928;4.440;2023-08-20T08:49:24;5.75;;;1.30;;
21245;SDS011;10781;50.928;4.440;2023-08-20T08:51:51;3.33;;;1.10;;
21245;SDS011;10781;50.928;4.440;2023-08-20T08:54:21;3.00;;;1.08;;
21245;SDS011;10781;50.928;4.440;2023-08-20T08:56:51;3.95;;;1.00;;
21245;SDS011;10781;50.928;4.440;2023-08-20T08:59:16;2.88;;;0.80;;
21245;SDS011;10781;50.928;4.440;2023-08-20T09:01:43;3.10;;;1.05;;
21245;SDS011;10781;50.928;4.440;2023-08-20T09:04:08;2.00;;;0.73;;
21245;SDS011;10781;50.928;4.440;2023-08-20T09:07:09;3.00;;;0.95;;
21245;SDS011;10781;50.928;4.440;2023-08-20T09:09:26;2.45;;;0.70;;
21245;SDS011;10781;50.928;4.440;2023-08-20T09:11:54;1.10;;;0.55;;
21245;SDS011;10781;50.928;4.440;2023-08-20T09:14:21;2.10;;;0.28;;
21245;SDS011;10781;50.928;4.440;2023-08-20T09:16:54;1.85;;;0.40;;
21245;SDS011;10781;50.928;4.440;2023-08-20T09:19:30;1.10;;;0.50;;
21245;SDS011;10781;50.928;4.440;2023-08-20T09:22:00;1.33;;;0.43;;
21245;SDS011;10781;50.928;4.440;2023-08-20T09:24:26;1.75;;;0.57;;
21245;SDS011;10781;50.928;4.440;2023-08-20T09:26:59;1.23;;;0.60;;
21245;SDS011;10781;50.928;4.440;2023-08-20T09:29:24;1.45;;;0.50;;
21245;SDS011;10781;50.928;4.440;2023-08-20T09:31:50;2.15;;;0.65;;
21245;SDS011;10781;50.928;4.440;2023-08-20T09:34:35;3.03;;;0.68;;
21245;SDS011;10781;50.928;4.440;2023-08-20T09:37:02;0.82;;;0.43;;
21245;SDS011;10781;50.928;4.440;2023-08-20T09:39:27;1.88;;;0.52;;
21245;SDS011;10781;50.928;4.440;2023-08-20T09:41:53;1.75;;;0.50;;
21245;SDS011;10781;50.928;4.440;2023-08-20T09:44:20;2.47;;;0.60;;
21245;SDS011;10781;50.928;4.440;2023-08-20T09:46:47;1.60;;;0.70;;
21245;SDS011;10781;50.928;4.440;2023-08-20T09:49:13;1.58;;;1.48;;
21245;SDS011;10781;50.928;4.440;2023-08-20T09:51:42;0.60;;;0.30;;
21245;SDS011;10781;50.928;4.440;2023-08-20T09:54:30;0.90;;;0.40;;
21245;SDS011;10781;50.928;4.440;2023-08-20T09:57:07;2.10;;;0.60;;
21245;SDS011;10781;50.928;4.440;2023-08-20T09:59:37;2.03;;;0.57;;
21245;SDS011;10781;50.928;4.440;2023-08-20T10:02:06;1.10;;;0.50;;
21245;SDS011;10781;50.928;4.440;2023-08-20T10:04:36;1.63;;;0.60;;
21245;SDS011;10781;50.928;4.440;2023-08-20T10:07:02;1.65;;;1.25;;
21245;SDS011;10781;50.928;4.440;2023-08-20T10:09:29;2.40;;;2.20;;
21245;SDS011;10781;50.928;4.440;2023-08-20T10:11:54;2.42;;;0.70;;
21245;SDS011;10781;50.928;4.440;2023-08-20T10:14:21;0.73;;;0.40;;
21245;SDS011;10781;50.928;4.440;2023-08-20T10:16:47;1.52;;;0.50;;
21245;SDS011;10781;50.928;4.440;2023-08-20T10:19:14;0.95;;;0.50;;
21245;SDS011;10781;50.928;4.440;2023-08-20T10:21:44;3.92;;;0.93;;
21245;SDS011;10781;50.928;4.440;2023-08-20T10:24:14;1.75;;;0.75;;
21245;SDS011;10781;50.928;4.440;2023-08-20T10:26:44;1.92;;;0.68;;
21245;SDS011;10781;50.928;4.440;2023-08-20T10:32:00;1.17;;;0.60;;
21245;SDS011;10781;50.928;4.440;2023-08-20T10:34:32;0.95;;;0.40;;
21245;SDS011;10781;50.928;4.440;2023-08-20T10:37:09;1.33;;;0.50;;
21245;SDS011;10781;50.928;4.440;2023-08-20T10:39:38;2.35;;;0.77;;
21245;SDS011;10781;50.928;4.440;2023-08-20T10:47:44;1.65;;;0.60;;
21245;SDS011;10781;50.928;4.440;2023-08-20T10:50:11;1.38;;;0.60;;
21245;SDS011;10781;50.928;4.440;2023-08-20T10:52:46;2.25;;;0.55;;
21245;SDS011;10781;50.928;4.440;2023-08-20T10:55:22;0.98;;;0.50;;
21245;SDS011;10781;50.928;4.440;2023-08-20T10:57:55;2.13;;;0.60;;
21245;SDS011;10781;50.928;4.440;2023-08-20T11:00:22;1.23;;;0.63;;
21245;SDS011;10781;50.928;4.440;2023-08-20T11:02:48;1.88;;;0.73;;
21245;SDS011;10781;50.928;4.440;2023-08-20T11:05:18;2.10;;;1.00;;
21245;SDS011;10781;50.928;4.440;2023-08-20T11:07:46;1.90;;;0.65;;
21245;SDS011;10781;50.928;4.440;2023-08-20T11:10:13;2.10;;;0.70;;
21245;SDS011;10781;50.928;4.440;2023-08-20T11:12:40;2.05;;;0.77;;
21245;SDS011;10781;50.928;4.440;2023-08-20T11:15:07;1.83;;;0.55;;
21245;SDS011;10781;50.928;4.440;2023-08-20T11:17:33;1.50;;;0.57;;
21245;SDS011;10781;50.928;4.440;2023-08-20T11:19:59;1.33;;;0.80;;
21245;SDS011;10781;50.928;4.440;2023-08-20T11:22:25;1.65;;;0.70;;
21245;SDS011;10781;50.928;4.440;2023-08-20T11:24:52;1.55;;;0.75;;
21245;SDS011;10781;50.928;4.440;2023-08-20T11:27:17;2.38;;;0.77;;
21245;SDS011;10781;50.928;4.440;2023-08-20T11:29:43;2.25;;;0.80;;
21245;SDS011;10781;50.928;4.440;2023-08-20T11:32:09;2.22;;;0.80;;
21245;SDS011;10781;50.928;4.440;2023-08-20T11:34:36;2.83;;;1.65;;
21245;SDS011;10781;50.928;4.440;2023-08-20T11:37:03;4.03;;;3.63;;
21245;SDS011;10781;50.928;4.440;2023-08-20T11:39:30;3.35;;;1.95;;
21245;SDS011;10781;50.928;4.440;2023-08-20T11:41:55;0.80;;;0.57;;
21245;SDS011;10781;50.928;4.440;2023-08-20T11:44:21;2.53;;;0.77;;
21245;SDS011;10781;50.928;4.440;2023-08-20T11:46:48;1.65;;;0.73;;
21245;SDS011;10781;50.928;4.440;2023-08-20T11:49:14;1.55;;;0.80;;
21245;SDS011;10781;50.928;4.440;2023-08-20T11:51:44;1.75;;;0.88;;
21245;SDS011;10781;50.928;4.440;2023-08-20T11:54:13;1.45;;;0.77;;
21245;SDS011;10781;50.928;4.440;2023-08-20T11:56:44;1.70;;;0.90;;
21245;SDS011;10781;50.928;4.440;2023-08-20T11:59:15;2.03;;;0.90;;
21245;SDS011;10781;50.928;4.440;2023-08-20T12:01:41;2.58;;;0.88;;
21245;SDS011;10781;50.928;4.440;2023-08-20T12:04:08;1.50;;;0.82;;
21245;SDS011;10781;50.928;4.440;2023-08-20T12:06:36;1.60;;;0.88;;
21245;SDS011;10781;50.928;4.440;2023-08-20T12:09:17;14.07;;;13.07;;
21245;SDS011;10781;50.928;4.440;2023-08-20T12:11:51;5.25;;;4.75;;
21245;SDS011;10781;50.928;4.440;2023-08-20T12:14:18;2.95;;;1.30;;
21245;SDS011;10781;50.928;4.440;2023-08-20T12:16:44;1.60;;;1.15;;
21245;SDS011;10781;50.928;4.440;2023-08-20T12:19:10;3.22;;;1.20;;
21245;SDS011;10781;50.928;4.440;2023-08-20T12:21:35;2.58;;;1.10;;
21245;SDS011;10781;50.928;4.440;2023-08-20T12:24:01;5.05;;;1.35;;
21245;SDS011;10781;50.928;4.440;2023-08-20T12:26:26;4.03;;;1.20;;
21245;SDS011;10781;50.928;4.440;2023-08-20T12:28:52;2.60;;;1.13;;
21245;SDS011;10781;50.928;4.440;2023-08-20T12:31:18;2.75;;;1.10;;
21245;SDS011;10781;50.928;4.440;2023-08-20T12:33:43;2.08;;;1.17;;
21245;SDS011;10781;50.928;4.440;2023-08-20T12:36:09;2.85;;;1.23;;
21245;SDS011;10781;50.928;4.440;2023-08-20T12:38:34;2.78;;;1.15;;
21245;SDS011;10781;50.928;4.440;2023-08-20T12:41:01;3.05;;;1.10;;
21245;SDS011;10781;50.928;4.440;2023-08-20T12:43:28;3.15;;;1.20;;
21245;SDS011;10781;50.928;4.440;2023-08-20T12:45:54;3.15;;;1.05;;
21245;SDS011;10781;50.928;4.440;2023-08-20T12:48:20;3.10;;;1.00;;
21245;SDS011;10781;50.928;4.440;2023-08-20T12:50:45;4.40;;;0.98;;
21245;SDS011;10781;50.928;4.440;2023-08-20T12:53:11;2.85;;;1.10;;
21245;SDS011;10781;50.928;4.440;2023-08-20T12:55:38;3.95;;;1.20;;
21245;SDS011;10781;50.928;4.440;2023-08-20T12:58:03;2.45;;;1.23;;
21245;SDS011;10781;50.928;4.440;2023-08-20T13:00:29;2.40;;;1.10;;
21245;SDS011;10781;50.928;4.440;2023-08-20T13:02:55;1.88;;;1.10;;
21245;SDS011;10781;50.928;4.440;2023-08-20T13:05:22;4.28;;;1.25;;
21245;SDS011;10781;50.928;4.440;2023-08-20T13:07:48;3.30;;;1.40;;
21245;SDS011;10781;50.928;4.440;2023-08-20T13:10:15;2.33;;;1.30;;
21245;SDS011;10781;50.928;4.440;2023-08-20T13:12:41;3.45;;;1.15;;
21245;SDS011;10781;50.928;4.440;2023-08-20T13:15:08;1.65;;;1.00;;
21245;SDS011;10781;50.928;4.440;2023-08-20T13:17:35;4.50;;;1.20;;
21245;SDS011;10781;50.928;4.440;2023-08-20T13:20:03;4.10;;;1.50;;
21245;SDS011;10781;50.928;4.440;2023-08-20T13:22:30;2.78;;;1.10;;
21245;SDS011;10781;50.928;4.440;2023-08-20T13:24:55;2.55;;;1.00;;
21245;SDS011;10781;50.928;4.440;2023-08-20T13:27:21;3.03;;;1.17;;
21245;SDS011;10781;50.928;4.440;2023-08-20T13:29:47;6.50;;;1.10;;
21245;SDS011;10781;50.928;4.440;2023-08-20T13:32:12;3.47;;;1.30;;
21245;SDS011;10781;50.928;4.440;2023-08-20T13:34:40;12.75;;;11.68;;
21245;SDS011;10781;50.928;4.440;2023-08-20T13:37:06;27.13;;;24.77;;
21245;SDS011;10781;50.928;4.440;2023-08-20T13:39:32;20.08;;;18.33;;
21245;SDS011;10781;50.928;4.440;2023-08-20T13:41:58;3.20;;;1.10;;
21245;SDS011;10781;50.928;4.440;2023-08-20T13:44:23;2.78;;;1.15;;
21245;SDS011;10781;50.928;4.440;2023-08-20T13:46:49;4.22;;;1.00;;
21245;SDS011;10781;50.928;4.440;2023-08-20T13:49:15;3.67;;;1.23;;
21245;SDS011;10781;50.928;4.440;2023-08-20T13:51:40;2.72;;;1.20;;
21245;SDS011;10781;50.928;4.440;2023-08-20T13:54:06;5.32;;;1.50;;
21245;SDS011;10781;50.928;4.440;2023-08-20T13:56:32;2.90;;;1.20;;
21245;SDS011;10781;50.928;4.440;2023-08-20T13:58:58;3.40;;;1.00;;
21245;SDS011;10781;50.928;4.440;2023-08-20T14:01:23;3.17;;;1.10;;
21245;SDS011;10781;50.928;4.440;2023-08-20T14:03:49;7.85;;;5.43;;
21245;SDS011;10781;50.928;4.440;2023-08-20T14:06:18;6.85;;;4.50;;
21245;SDS011;10781;50.928;4.440;2023-08-20T14:08:43;5.10;;;2.65;;
21245;SDS011;10781;50.928;4.440;2023-08-20T14:11:09;6.63;;;2.40;;
21245;SDS011;10781;50.928;4.440;2023-08-20T14:13:34;4.35;;;1.88;;
21245;SDS011;10781;50.928;4.440;2023-08-20T14:16:00;3.47;;;1.35;;
21245;SDS011;10781;50.928;4.440;2023-08-20T14:18:26;2.55;;;0.90;;
21245;SDS011;10781;50.928;4.440;2023-08-20T14:20:52;3.75;;;1.20;;
21245;SDS011;10781;50.928;4.440;2023-08-20T14:23:17;2.38;;;1.10;;
21245;SDS011;10781;50.928;4.440;2023-08-20T14:25:43;2.38;;;1.30;;
21245;SDS011;10781;50.928;4.440;2023-08-20T14:28:09;4.00;;;1.20;;
21245;SDS011;10781;50.928;4.440;2023-08-20T14:30:38;3.03;;;1.20;;
21245;SDS011;10781;50.928;4.440;2023-08-20T14:33:04;3.38;;;1.50;;
21245;SDS011;10781;50.928;4.440;2023-08-20T14:35:30;3.50;;;1.38;;
21245;SDS011;10781;50.928;4.440;2023-08-20T14:37:56;3.72;;;1.17;;
21245;SDS011;10781;50.928;4.440;2023-08-20T14:40:22;5.65;;;2.90;;
21245;SDS011;10781;50.928;4.440;2023-08-20T14:42:51;5.00;;;2.50;;
21245;SDS011;10781;50.928;4.440;2023-08-20T14:45:17;6.00;;;2.70;;
21245;SDS011;10781;50.928;4.440;2023-08-20T14:47:45;9.98;;;3.70;;
21245;SDS011;10781;50.928;4.440;2023-08-20T14:50:10;6.97;;;3.83;;
21245;SDS011;10781;50.928;4.440;2023-08-20T14:52:36;13.23;;;9.63;;
21245;SDS011;10781;50.928;4.440;2023-08-20T14:55:02;13.13;;;11.48;;
21245;SDS011;10781;50.928;4.440;2023-08-20T14:57:29;3.88;;;1.35;;
21245;SDS011;10781;50.928;4.440;2023-08-20T14:59:55;4.25;;;1.83;;